sensor_id;sensor_type;location;lat;lon;timestamp;pressure;altitude;pressure_sealevel;temperature;humidity
6565;BME280;3316;44.118;27.258;2024-01-11T00:00:26;102455.28;;;-4.05;100.00
6565;BME280;3316;44.118;27.258;2024-01-11T00:02:52;102466.16;;;-3.97;100.00
6565;BME280;3316;44.118;27.258;2024-01-11T00:05:17;102470.16;;;-4.01;100.00
6565;BME280;3316;44.118;27.258;2024-01-11T00:07:42;102464.13;;;-4.01;100.00
6565;BME280;3316;44.118;27.258;2024-01-11T00:10:08;102420.94;;;-4.17;100.00
6565;BME280;3316;44.118;27.258;2024-01-11T00:12:34;102453.38;;;-4.07;100.00
6565;BME280;3316;44.118;27.258;2024-01-11T00:14:59;102448.91;;;-4.10;100.00
6565;BME280;3316;44.118;27.258;2024-01-11T00:17:24;102449.50;;;-4.02;100.00
6565;BME280;3316;44.118;27.258;2024-01-11T00:19:50;102417.13;;;-4.22;100.00
6565;BME280;3316;44.118;27.258;2024-01-11T00:22:16;102429.59;;;-4.26;100.00
6565;BME280;3316;44.118;27.258;2024-01-11T00:24:41;102434.78;;;-4.15;100.00
6565;BME280;3316;44.118;27.258;2024-01-11T00:27:07;102437.25;;;-4.16;100.00
6565;BME280;3316;44.118;27.258;2024-01-11T00:29:33;102412.59;;;-4.36;100.00
6565;BME280;3316;44.118;27.258;2024-01-11T00:31:59;102438.63;;;-4.10;100.00
6565;BME280;3316;44.118;27.258;2024-01-11T00:34:24;102418.59;;;-4.14;100.00
6565;BME280;3316;44.118;27.258;2024-01-11T00:36:49;102422.59;;;-4.17;100.00
6565;BME280;3316;44.118;27.258;2024-01-11T00:39:15;102404.03;;;-4.25;100.00
6565;BME280;3316;44.118;27.258;2024-01-11T00:41:40;102410.00;;;-4.14;100.00
6565;BME280;3316;44.118;27.258;2024-01-11T00:44:06;102428.81;;;-4.04;100.00
6565;BME280;3316;44.118;27.258;2024-01-11T00:46:33;102426.34;;;-4.02;100.00
6565;BME280;3316;44.118;27.258;2024-01-11T00:48:58;102427.19;;;-4.13;100.00
6565;BME280;3316;44.118;27.258;2024-01-11T00:51:23;102370.63;;;-4.25;100.00
6565;BME280;3316;44.118;27.258;2024-01-11T00:53:49;102414.25;;;-4.03;100.00
6565;BME280;3316;44.118;27.258;2024-01-11T00:56:18;102411.03;;;-4.01;100.00
6565;BME280;3316;44.118;27.258;2024-01-11T00:58:44;102384.41;;;-4.13;100.00
6565;BME280;3316;44.118;27.258;2024-01-11T01:01:09;102402.41;;;-4.01;100.00
6565;BME280;3316;44.118;27.258;2024-01-11T01:03:35;102408.75;;;-3.86;100.00
6565;BME280;3316;44.118;27.258;2024-01-11T01:06:01;102405.91;;;-3.89;100.00
6565;BME280;3316;44.118;27.258;2024-01-11T01:08:27;102398.00;;;-3.92;100.00
6565;BME280;3316;44.118;27.258;2024-01-11T01:10:52;102407.72;;;-3.88;100.00
6565;BME280;3316;44.118;27.258;2024-01-11T01:13:18;102393.63;;;-3.93;100.00
6565;BME280;3316;44.118;27.258;2024-01-11T01:15:43;102399.13;;;-3.89;100.00
6565;BME280;3316;44.118;27.258;2024-01-11T01:18:09;102399.00;;;-3.90;100.00
6565;BME280;3316;44.118;27.258;2024-01-11T01:20:34;102323.13;;;-4.30;100.00
6565;BME280;3316;44.118;27.258;2024-01-11T01:22:59;102379.44;;;-3.88;100.00
6565;BME280;3316;44.118;27.258;2024-01-11T01:25:25;102346.41;;;-4.05;100.00
6565;BME280;3316;44.118;27.258;2024-01-11T01:27:51;102379.00;;;-3.83;100.00
6565;BME280;3316;44.118;27.258;2024-01-11T01:30:16;102369.03;;;-3.90;100.00
6565;BME280;3316;44.118;27.258;2024-01-11T01:32:41;102369.03;;;-3.78;100.00
6565;BME280;3316;44.118;27.258;2024-01-11T01:35:07;102360.66;;;-3.87;100.00
6565;BME280;3316;44.118;27.258;2024-01-11T01:37:33;102368.38;;;-3.87;100.00
6565;BME280;3316;44.118;27.258;2024-01-11T01:39:58;102364.22;;;-3.85;100.00
6565;BME280;3316;44.118;27.258;2024-01-11T01:42:23;102352.38;;;-3.83;100.00
6565;BME280;3316;44.118;27.258;2024-01-11T01:44:49;102348.25;;;-3.81;100.00
6565;BME280;3316;44.118;27.258;2024-01-11T01:47:16;102344.31;;;-3.88;100.00
6565;BME280;3316;44.118;27.258;2024-01-11T01:49:43;102339.75;;;-3.80;100.00
6565;BME280;3316;44.118;27.258;2024-01-11T01:52:10;102283.50;;;-4.10;100.00
6565;BME280;3316;44.118;27.258;2024-01-11T01:54:39;102311.69;;;-3.89;100.00
6565;BME280;3316;44.118;27.258;2024-01-11T01:57:05;102332.28;;;-3.77;100.00
6565;BME280;3316;44.118;27.258;2024-01-11T01:59:32;102323.09;;;-3.74;100.00
6565;BME280;3316;44.118;27.258;2024-01-11T02:01:58;102278.47;;;-3.97;100.00
6565;BME280;3316;44.118;27.258;2024-01-11T02:04:23;102298.19;;;-3.75;100.00
6565;BME280;3316;44.118;27.258;2024-01-11T02:06:50;102313.16;;;-3.69;100.00
6565;BME280;3316;44.118;27.258;2024-01-11T02:09:17;102296.25;;;-3.77;100.00
6565;BME280;3316;44.118;27.258;2024-01-11T02:11:44;102313.47;;;-3.65;100.00
6565;BME280;3316;44.118;27.258;2024-01-11T02:14:10;102303.41;;;-3.62;100.00
6565;BME280;3316;44.118;27.258;2024-01-11T02:16:36;102305.44;;;-3.57;100.00
6565;BME280;3316;44.118;27.258;2024-01-11T02:19:04;102302.50;;;-3.62;100.00
6565;BME280;3316;44.118;27.258;2024-01-11T02:21:30;102274.13;;;-3.64;100.00
6565;BME280;3316;44.118;27.258;2024-01-11T02:24:04;102259.91;;;-3.82;100.00
6565;BME280;3316;44.118;27.258;2024-01-11T02:26:31;102297.72;;;-3.57;100.00
6565;BME280;3316;44.118;27.258;2024-01-11T02:28:56;102300.38;;;-3.56;100.00
6565;BME280;3316;44.118;27.258;2024-01-11T02:31:22;102300.94;;;-3.60;100.00
6565;BME280;3316;44.118;27.258;2024-01-11T02:33:48;102277.78;;;-3.60;100.00
6565;BME280;3316;44.118;27.258;2024-01-11T02:36:14;102290.00;;;-3.57;100.00
6565;BME280;3316;44.118;27.258;2024-01-11T02:38:41;102229.41;;;-3.89;99.53
6565;BME280;3316;44.118;27.258;2024-01-11T02:41:07;102279.59;;;-3.59;100.00
6565;BME280;3316;44.118;27.258;2024-01-11T02:43:33;102261.16;;;-3.77;100.00
6565;BME280;3316;44.118;27.258;2024-01-11T02:46:03;102278.00;;;-3.69;100.00
6565;BME280;3316;44.118;27.258;2024-01-11T02:48:29;102273.78;;;-3.68;100.00
6565;BME280;3316;44.118;27.258;2024-01-11T02:50:56;102266.31;;;-3.77;100.00
6565;BME280;3316;44.118;27.258;2024-01-11T02:53:22;102235.47;;;-3.88;100.00
6565;BME280;3316;44.118;27.258;2024-01-11T02:55:47;102253.09;;;-3.81;100.00
6565;BME280;3316;44.118;27.258;2024-01-11T02:58:12;102244.19;;;-3.86;100.00
6565;BME280;3316;44.118;27.258;2024-01-11T03:00:38;102214.44;;;-4.06;100.00
6565;BME280;3316;44.118;27.258;2024-01-11T03:03:04;102205.28;;;-4.02;100.00
6565;BME280;3316;44.118;27.258;2024-01-11T03:05:29;102251.44;;;-3.81;100.00
6565;BME280;3316;44.118;27.258;2024-01-11T03:07:54;102245.59;;;-3.78;100.00
6565;BME280;3316;44.118;27.258;2024-01-11T03:10:20;102248.63;;;-3.84;100.00
6565;BME280;3316;44.118;27.258;2024-01-11T03:12:45;102247.84;;;-3.83;100.00
6565;BME280;3316;44.118;27.258;2024-01-11T03:15:12;102245.84;;;-3.87;100.00
6565;BME280;3316;44.118;27.258;2024-01-11T03:17:37;102246.84;;;-3.85;100.00
6565;BME280;3316;44.118;27.258;2024-01-11T03:20:03;102235.13;;;-3.93;100.00
6565;BME280;3316;44.118;27.258;2024-01-11T03:22:29;102226.84;;;-3.89;100.00
6565;BME280;3316;44.118;27.258;2024-01-11T03:24:55;102228.75;;;-3.86;100.00
6565;BME280;3316;44.118;27.258;2024-01-11T03:27:20;102220.34;;;-3.95;100.00
6565;BME280;3316;44.118;27.258;2024-01-11T03:29:46;102217.22;;;-4.03;100.00
6565;BME280;3316;44.118;27.258;2024-01-11T03:32:11;102227.16;;;-3.96;100.00
6565;BME280;3316;44.118;27.258;2024-01-11T03:34:39;102195.00;;;-4.14;100.00
6565;BME280;3316;44.118;27.258;2024-01-11T03:37:04;102208.50;;;-4.05;100.00
6565;BME280;3316;44.118;27.258;2024-01-11T03:39:30;102182.59;;;-4.19;100.00
6565;BME280;3316;44.118;27.258;2024-01-11T03:41:55;102211.75;;;-4.07;100.00
6565;BME280;3316;44.118;27.258;2024-01-11T03:44:22;102198.13;;;-4.06;100.00
6565;BME280;3316;44.118;27.258;2024-01-11T03:46:47;102186.28;;;-4.16;100.00
6565;BME280;3316;44.118;27.258;2024-01-11T03:49:13;102205.03;;;-4.05;100.00
6565;BME280;3316;44.118;27.258;2024-01-11T03:51:38;102192.44;;;-4.02;100.00
6565;BME280;3316;44.118;27.258;2024-01-11T03:54:04;102156.78;;;-4.21;100.00
6565;BME280;3316;44.118;27.258;2024-01-11T03:56:29;102166.94;;;-4.11;100.00
6565;BME280;3316;44.118;27.258;2024-01-11T03:58:55;102186.47;;;-4.01;100.00
6565;BME280;3316;44.118;27.258;2024-01-11T04:01:22;102130.19;;;-4.33;100.00
6565;BME280;3316;44.118;27.258;2024-01-11T04:03:47;102169.75;;;-4.08;100.00
6565;BME280;3316;44.118;27.258;2024-01-11T04:06:21;102176.44;;;-3.98;100.00
6565;BME280;3316;44.118;27.258;2024-01-11T04:08:48;102171.16;;;-4.00;100.00
6565;BME280;3316;44.118;27.258;2024-01-11T04:11:13;102168.50;;;-4.01;100.00
6565;BME280;3316;44.118;27.258;2024-01-11T04:13:39;102170.47;;;-3.86;100.00
6565;BME280;3316;44.118;27.258;2024-01-11T04:16:07;102166.34;;;-3.84;100.00
6565;BME280;3316;44.118;27.258;2024-01-11T04:18:33;102165.69;;;-3.81;100.00
6565;BME280;3316;44.118;27.258;2024-01-11T04:20:58;102150.38;;;-3.91;100.00
6565;BME280;3316;44.118;27.258;2024-01-11T04:23:24;102166.78;;;-3.78;100.00
6565;BME280;3316;44.118;27.258;2024-01-11T04:25:50;102164.00;;;-3.81;100.00
6565;BME280;3316;44.118;27.258;2024-01-11T04:28:17;102146.34;;;-3.88;100.00
6565;BME280;3316;44.118;27.258;2024-01-11T04:30:42;102132.94;;;-3.95;100.00
6565;BME280;3316;44.118;27.258;2024-01-11T04:33:08;102159.72;;;-3.80;100.00
6565;BME280;3316;44.118;27.258;2024-01-11T04:35:34;102151.81;;;-3.83;100.00
6565;BME280;3316;44.118;27.258;2024-01-11T04:37:59;102159.53;;;-3.83;100.00
6565;BME280;3316;44.118;27.258;2024-01-11T04:40:25;102155.16;;;-3.84;100.00
6565;BME280;3316;44.118;27.258;2024-01-11T04:42:50;102155.06;;;-3.86;100.00
6565;BME280;3316;44.118;27.258;2024-01-11T04:45:16;102118.53;;;-4.05;100.00
6565;BME280;3316;44.118;27.258;2024-01-11T04:47:41;102123.88;;;-4.02;100.00
6565;BME280;3316;44.118;27.258;2024-01-11T04:50:07;102147.81;;;-3.91;100.00
6565;BME280;3316;44.118;27.258;2024-01-11T04:52:32;102150.28;;;-3.93;100.00
6565;BME280;3316;44.118;27.258;2024-01-11T04:54:58;102150.94;;;-3.95;100.00
6565;BME280;3316;44.118;27.258;2024-01-11T04:57:23;102148.03;;;-4.00;100.00
6565;BME280;3316;44.118;27.258;2024-01-11T04:59:49;102157.44;;;-4.00;100.00
6565;BME280;3316;44.118;27.258;2024-01-11T05:02:14;102146.34;;;-3.99;100.00
6565;BME280;3316;44.118;27.258;2024-01-11T05:04:40;102162.78;;;-3.97;100.00
6565;BME280;3316;44.118;27.258;2024-01-11T05:07:05;102159.44;;;-3.96;100.00
6565;BME280;3316;44.118;27.258;2024-01-11T05:09:31;102146.72;;;-4.06;100.00
6565;BME280;3316;44.118;27.258;2024-01-11T05:11:57;102131.53;;;-4.15;100.00
6565;BME280;3316;44.118;27.258;2024-01-11T05:14:22;102128.94;;;-4.15;100.00
6565;BME280;3316;44.118;27.258;2024-01-11T05:16:47;102087.31;;;-4.34;100.00
6565;BME280;3316;44.118;27.258;2024-01-11T05:19:13;102151.59;;;-3.98;100.00
6565;BME280;3316;44.118;27.258;2024-01-11T05:21:38;102144.59;;;-4.00;100.00
6565;BME280;3316;44.118;27.258;2024-01-11T05:24:04;102132.19;;;-4.06;100.00
6565;BME280;3316;44.118;27.258;2024-01-11T05:26:30;102128.38;;;-4.11;100.00
6565;BME280;3316;44.118;27.258;2024-01-11T05:28:55;102120.78;;;-4.09;100.00
6565;BME280;3316;44.118;27.258;2024-01-11T05:31:20;102118.38;;;-4.19;100.00
6565;BME280;3316;44.118;27.258;2024-01-11T05:33:47;102136.88;;;-4.00;100.00
6565;BME280;3316;44.118;27.258;2024-01-11T05:36:12;102137.88;;;-3.98;100.00
6565;BME280;3316;44.118;27.258;2024-01-11T05:38:39;102138.75;;;-3.98;100.00
6565;BME280;3316;44.118;27.258;2024-01-11T05:41:04;102137.88;;;-3.98;100.00
6565;BME280;3316;44.118;27.258;2024-01-11T05:43:30;102134.84;;;-3.93;100.00
6565;BME280;3316;44.118;27.258;2024-01-11T05:45:55;102074.00;;;-4.28;100.00
6565;BME280;3316;44.118;27.258;2024-01-11T05:48:21;102129.91;;;-3.90;100.00
6565;BME280;3316;44.118;27.258;2024-01-11T05:50:46;102110.47;;;-3.98;100.00
6565;BME280;3316;44.118;27.258;2024-01-11T05:53:12;102131.72;;;-3.89;100.00
6565;BME280;3316;44.118;27.258;2024-01-11T05:55:39;102137.81;;;-3.75;100.00
6565;BME280;3316;44.118;27.258;2024-01-11T05:58:05;102127.16;;;-3.68;100.00
6565;BME280;3316;44.118;27.258;2024-01-11T06:00:30;102132.84;;;-3.61;100.00
6565;BME280;3316;44.118;27.258;2024-01-11T06:02:56;102106.06;;;-3.51;100.00
6565;BME280;3316;44.118;27.258;2024-01-11T06:05:21;102137.94;;;-2.36;93.30
6565;BME280;3316;44.118;27.258;2024-01-11T06:07:47;102113.47;;;-1.48;80.21
6565;BME280;3316;44.118;27.258;2024-01-11T06:10:13;102130.06;;;-0.88;72.30
6565;BME280;3316;44.118;27.258;2024-01-11T06:12:39;102133.72;;;-0.69;69.61
6565;BME280;3316;44.118;27.258;2024-01-11T06:15:05;102121.59;;;-0.41;66.32
6565;BME280;3316;44.118;27.258;2024-01-11T06:17:31;102129.34;;;0.35;63.64
6565;BME280;3316;44.118;27.258;2024-01-11T06:19:56;102131.69;;;1.11;58.65
6565;BME280;3316;44.118;27.258;2024-01-11T06:22:22;102118.22;;;1.69;56.56
6565;BME280;3316;44.118;27.258;2024-01-11T06:24:47;102118.50;;;1.57;54.73
6565;BME280;3316;44.118;27.258;2024-01-11T06:27:13;102113.09;;;1.70;53.56
6565;BME280;3316;44.118;27.258;2024-01-11T06:29:38;102097.16;;;1.80;52.94
6565;BME280;3316;44.118;27.258;2024-01-11T06:32:04;102111.03;;;2.35;51.31
6565;BME280;3316;44.118;27.258;2024-01-11T06:34:29;102094.69;;;2.01;50.12
6565;BME280;3316;44.118;27.258;2024-01-11T06:36:55;102089.16;;;2.49;49.95
6565;BME280;3316;44.118;27.258;2024-01-11T06:39:21;102071.19;;;2.73;48.09
6565;BME280;3316;44.118;27.258;2024-01-11T06:41:46;102091.66;;;2.29;47.82
6565;BME280;3316;44.118;27.258;2024-01-11T06:44:12;102093.84;;;2.20;48.60
6565;BME280;3316;44.118;27.258;2024-01-11T06:46:37;102083.13;;;2.69;47.49
6565;BME280;3316;44.118;27.258;2024-01-11T06:49:09;102094.88;;;3.00;47.18
6565;BME280;3316;44.118;27.258;2024-01-11T06:51:34;102088.19;;;3.46;45.33
6565;BME280;3316;44.118;27.258;2024-01-11T06:54:00;102099.03;;;3.15;46.34
6565;BME280;3316;44.118;27.258;2024-01-11T06:56:26;102102.00;;;3.24;45.94
6565;BME280;3316;44.118;27.258;2024-01-11T06:58:52;102096.53;;;3.37;45.12
6565;BME280;3316;44.118;27.258;2024-01-11T07:01:18;102097.50;;;4.04;43.95
6565;BME280;3316;44.118;27.258;2024-01-11T07:03:44;102096.41;;;4.66;42.42
6565;BME280;3316;44.118;27.258;2024-01-11T07:06:09;102103.44;;;4.92;41.30
6565;BME280;3316;44.118;27.258;2024-01-11T07:08:35;102106.16;;;4.95;41.01
6565;BME280;3316;44.118;27.258;2024-01-11T07:11:01;102108.50;;;5.11;41.69
6565;BME280;3316;44.118;27.258;2024-01-11T07:13:30;102100.00;;;4.69;41.52
6565;BME280;3316;44.118;27.258;2024-01-11T07:15:57;102075.41;;;4.39;42.39
6565;BME280;3316;44.118;27.258;2024-01-11T07:18:26;102087.28;;;5.02;42.28
6565;BME280;3316;44.118;27.258;2024-01-11T07:20:52;102069.66;;;5.72;40.66
6565;BME280;3316;44.118;27.258;2024-01-11T07:23:18;102074.19;;;6.32;40.09
6565;BME280;3316;44.118;27.258;2024-01-11T07:25:43;102082.91;;;6.92;38.91
6565;BME280;3316;44.118;27.258;2024-01-11T07:28:09;102044.50;;;7.24;38.21
6565;BME280;3316;44.118;27.258;2024-01-11T07:30:34;102071.75;;;7.66;38.05
6565;BME280;3316;44.118;27.258;2024-01-11T07:33:00;102089.88;;;7.94;37.51
6565;BME280;3316;44.118;27.258;2024-01-11T07:35:25;102084.41;;;8.21;36.28
6565;BME280;3316;44.118;27.258;2024-01-11T07:37:51;102077.78;;;7.63;37.31
6565;BME280;3316;44.118;27.258;2024-01-11T07:40:17;102079.84;;;7.76;37.33
6565;BME280;3316;44.118;27.258;2024-01-11T07:42:43;102079.69;;;7.35;37.34
6565;BME280;3316;44.118;27.258;2024-01-11T07:45:09;102067.97;;;6.88;38.03
6565;BME280;3316;44.118;27.258;2024-01-11T07:47:39;102054.66;;;6.19;39.19
6565;BME280;3316;44.118;27.258;2024-01-11T07:50:05;102064.84;;;6.70;38.34
6565;BME280;3316;44.118;27.258;2024-01-11T07:52:38;102067.97;;;7.20;38.06
6565;BME280;3316;44.118;27.258;2024-01-11T07:55:07;102059.66;;;8.09;37.18
6565;BME280;3316;44.118;27.258;2024-01-11T07:57:42;102056.94;;;7.66;36.46
6565;BME280;3316;44.118;27.258;2024-01-11T08:00:08;102043.03;;;8.07;36.58
6565;BME280;3316;44.118;27.258;2024-01-11T08:02:34;102023.56;;;8.35;35.89
6565;BME280;3316;44.118;27.258;2024-01-11T08:05:00;102050.78;;;8.01;35.13
6565;BME280;3316;44.118;27.258;2024-01-11T08:07:27;102035.41;;;7.79;35.39
6565;BME280;3316;44.118;27.258;2024-01-11T08:09:52;102024.19;;;7.86;35.82
6565;BME280;3316;44.118;27.258;2024-01-11T08:12:18;102029.78;;;7.29;35.73
6565;BME280;3316;44.118;27.258;2024-01-11T08:14:43;102020.47;;;7.75;35.76
6565;BME280;3316;44.118;27.258;2024-01-11T08:17:10;102017.78;;;6.40;37.39
6565;BME280;3316;44.118;27.258;2024-01-11T08:19:35;101978.94;;;7.19;36.92
6565;BME280;3316;44.118;27.258;2024-01-11T08:22:01;102014.59;;;7.87;35.58
6565;BME280;3316;44.118;27.258;2024-01-11T08:24:27;102009.00;;;8.49;35.24
6565;BME280;3316;44.118;27.258;2024-01-11T08:26:53;101994.13;;;8.94;34.17
6565;BME280;3316;44.118;27.258;2024-01-11T08:29:18;101994.00;;;8.88;33.79
6565;BME280;3316;44.118;27.258;2024-01-11T08:31:45;101980.78;;;8.82;34.05
6565;BME280;3316;44.118;27.258;2024-01-11T08:34:11;101972.81;;;9.85;33.05
6565;BME280;3316;44.118;27.258;2024-01-11T08:36:36;101995.63;;;9.31;33.11
6565;BME280;3316;44.118;27.258;2024-01-11T08:39:04;101997.53;;;8.05;34.47
6565;BME280;3316;44.118;27.258;2024-01-11T08:41:36;101979.13;;;8.43;33.87
6565;BME280;3316;44.118;27.258;2024-01-11T08:44:03;101979.94;;;8.85;33.90
6565;BME280;3316;44.118;27.258;2024-01-11T08:46:31;101982.38;;;8.30;34.12
6565;BME280;3316;44.118;27.258;2024-01-11T08:48:59;101972.88;;;9.32;33.34
6565;BME280;3316;44.118;27.258;2024-01-11T08:51:25;101962.16;;;9.18;33.04
6565;BME280;3316;44.118;27.258;2024-01-11T08:53:51;101966.91;;;9.42;32.89
6565;BME280;3316;44.118;27.258;2024-01-11T08:56:18;101935.91;;;10.45;32.32
6565;BME280;3316;44.118;27.258;2024-01-11T08:58:43;101944.63;;;9.17;32.22
6565;BME280;3316;44.118;27.258;2024-01-11T09:01:09;101953.31;;;9.70;31.97
6565;BME280;3316;44.118;27.258;2024-01-11T09:03:34;101956.97;;;10.47;31.95
6565;BME280;3316;44.118;27.258;2024-01-11T09:06:01;101949.72;;;8.59;33.14
6565;BME280;3316;44.118;27.258;2024-01-11T09:08:27;101939.53;;;9.28;33.10
6565;BME280;3316;44.118;27.258;2024-01-11T09:10:52;101941.56;;;8.91;33.37
6565;BME280;3316;44.118;27.258;2024-01-11T09:13:18;101919.03;;;9.62;32.69
6565;BME280;3316;44.118;27.258;2024-01-11T09:15:44;101928.72;;;9.65;32.57
6565;BME280;3316;44.118;27.258;2024-01-11T09:18:09;101920.75;;;9.04;33.43
6565;BME280;3316;44.118;27.258;2024-01-11T09:20:35;101920.63;;;8.94;32.72
6565;BME280;3316;44.118;27.258;2024-01-11T09:23:01;101911.91;;;8.04;33.12
6565;BME280;3316;44.118;27.258;2024-01-11T09:25:32;101864.38;;;8.80;32.86
6565;BME280;3316;44.118;27.258;2024-01-11T09:27:58;101902.75;;;8.74;32.78
6565;BME280;3316;44.118;27.258;2024-01-11T09:30:24;101871.63;;;8.44;33.66
6565;BME280;3316;44.118;27.258;2024-01-11T09:32:49;101888.31;;;9.58;32.67
6565;BME280;3316;44.118;27.258;2024-01-11T09:35:15;101869.25;;;9.10;32.81
6565;BME280;3316;44.118;27.258;2024-01-11T09:37:40;101877.38;;;8.71;32.56
6565;BME280;3316;44.118;27.258;2024-01-11T09:40:06;101876.84;;;8.43;33.43
6565;BME280;3316;44.118;27.258;2024-01-11T09:42:36;101873.56;;;9.07;32.93
6565;BME280;3316;44.118;27.258;2024-01-11T09:45:02;101839.81;;;8.75;33.57
6565;BME280;3316;44.118;27.258;2024-01-11T09:47:34;101845.19;;;8.32;33.30
6565;BME280;3316;44.118;27.258;2024-01-11T09:50:02;101860.97;;;8.84;32.65
6565;BME280;3316;44.118;27.258;2024-01-11T09:52:28;101858.97;;;9.25;32.84
6565;BME280;3316;44.118;27.258;2024-01-11T09:54:54;101844.53;;;9.57;33.17
6565;BME280;3316;44.118;27.258;2024-01-11T09:57:24;101846.28;;;10.32;31.88
6565;BME280;3316;44.118;27.258;2024-01-11T09:59:54;101834.16;;;9.69;32.72
6565;BME280;3316;44.118;27.258;2024-01-11T10:02:20;101825.25;;;9.55;31.83
6565;BME280;3316;44.118;27.258;2024-01-11T10:04:47;101835.19;;;7.68;34.83
6565;BME280;3316;44.118;27.258;2024-01-11T10:07:12;101829.34;;;7.83;34.05
6565;BME280;3316;44.118;27.258;2024-01-11T10:09:40;101829.38;;;8.80;33.07
6565;BME280;3316;44.118;27.258;2024-01-11T10:12:05;101814.34;;;8.70;33.09
6565;BME280;3316;44.118;27.258;2024-01-11T10:14:31;101757.78;;;7.85;32.85
6565;BME280;3316;44.118;27.258;2024-01-11T10:16:57;101807.16;;;7.24;35.27
6565;BME280;3316;44.118;27.258;2024-01-11T10:19:22;101794.78;;;6.43;36.76
6565;BME280;3316;44.118;27.258;2024-01-11T10:21:48;101789.47;;;5.76;37.46
6565;BME280;3316;44.118;27.258;2024-01-11T10:24:19;101714.59;;;7.20;35.90
6565;BME280;3316;44.118;27.258;2024-01-11T10:26:57;101761.56;;;8.01;34.46
6565;BME280;3316;44.118;27.258;2024-01-11T10:29:28;101742.13;;;8.36;33.18
6565;BME280;3316;44.118;27.258;2024-01-11T10:31:55;101764.09;;;9.01;33.38
6565;BME280;3316;44.118;27.258;2024-01-11T10:34:23;101713.13;;;9.56;32.27
6565;BME280;3316;44.118;27.258;2024-01-11T10:36:52;101763.91;;;9.53;32.14
6565;BME280;3316;44.118;27.258;2024-01-11T10:39:20;101753.34;;;9.49;31.22
6565;BME280;3316;44.118;27.258;2024-01-11T10:41:51;101749.34;;;9.81;31.73
6565;BME280;3316;44.118;27.258;2024-01-11T10:44:19;101745.13;;;10.00;30.00
6565;BME280;3316;44.118;27.258;2024-01-11T10:46:48;101726.88;;;10.12;30.08
6565;BME280;3316;44.118;27.258;2024-01-11T10:49:17;101725.03;;;10.06;29.39
6565;BME280;3316;44.118;27.258;2024-01-11T10:51:53;101687.84;;;8.93;30.49
6565;BME280;3316;44.118;27.258;2024-01-11T10:54:22;101717.38;;;8.24;30.86
6565;BME280;3316;44.118;27.258;2024-01-11T10:56:49;101709.22;;;7.56;32.58
6565;BME280;3316;44.118;27.258;2024-01-11T10:59:16;101702.97;;;7.97;31.35
6565;BME280;3316;44.118;27.258;2024-01-11T11:01:44;101694.94;;;8.38;31.11
6565;BME280;3316;44.118;27.258;2024-01-11T11:04:10;101692.06;;;8.24;31.07
6565;BME280;3316;44.118;27.258;2024-01-11T11:06:38;101667.56;;;8.82;30.83
6565;BME280;3316;44.118;27.258;2024-01-11T11:09:04;101675.34;;;9.46;30.44
6565;BME280;3316;44.118;27.258;2024-01-11T11:11:31;101672.41;;;10.03;29.39
6565;BME280;3316;44.118;27.258;2024-01-11T11:14:00;101686.13;;;9.70;29.42
6565;BME280;3316;44.118;27.258;2024-01-11T11:16:26;101678.78;;;9.38;30.25
6565;BME280;3316;44.118;27.258;2024-01-11T11:18:54;101642.75;;;8.02;31.36
6565;BME280;3316;44.118;27.258;2024-01-11T11:21:21;101662.00;;;8.58;31.46
6565;BME280;3316;44.118;27.258;2024-01-11T11:23:47;101647.09;;;8.55;31.58
6565;BME280;3316;44.118;27.258;2024-01-11T11:26:18;101663.72;;;8.02;31.87
6565;BME280;3316;44.118;27.258;2024-01-11T11:28:44;101642.31;;;8.27;31.82
6565;BME280;3316;44.118;27.258;2024-01-11T11:31:13;101643.56;;;8.50;31.98
6565;BME280;3316;44.118;27.258;2024-01-11T11:33:38;101644.66;;;8.67;32.06
6565;BME280;3316;44.118;27.258;2024-01-11T11:36:04;101631.38;;;9.29;30.95
6565;BME280;3316;44.118;27.258;2024-01-11T11:38:30;101647.81;;;9.11;30.99
6565;BME280;3316;44.118;27.258;2024-01-11T11:40:57;101601.97;;;8.82;31.36
6565;BME280;3316;44.118;27.258;2024-01-11T11:43:23;101619.75;;;9.07;32.26
6565;BME280;3316;44.118;27.258;2024-01-11T11:45:50;101613.00;;;9.27;31.79
6565;BME280;3316;44.118;27.258;2024-01-11T11:51:10;101599.78;;;9.17;32.37
6565;BME280;3316;44.118;27.258;2024-01-11T11:53:39;101570.75;;;7.77;33.18
6565;BME280;3316;44.118;27.258;2024-01-11T11:56:07;101592.59;;;7.27;34.20
6565;BME280;3316;44.118;27.258;2024-01-11T11:58:35;101584.91;;;7.38;34.81
6565;BME280;3316;44.118;27.258;2024-01-11T12:01:01;101539.34;;;7.28;34.58
6565;BME280;3316;44.118;27.258;2024-01-11T12:03:29;101589.09;;;7.77;34.63
6565;BME280;3316;44.118;27.258;2024-01-11T12:05:56;101575.28;;;7.89;34.70
6565;BME280;3316;44.118;27.258;2024-01-11T12:08:22;101571.91;;;7.44;35.42
6565;BME280;3316;44.118;27.258;2024-01-11T12:10:47;101569.97;;;6.84;35.15
6565;BME280;3316;44.118;27.258;2024-01-11T12:13:13;101572.50;;;6.81;35.38
6565;BME280;3316;44.118;27.258;2024-01-11T12:15:38;101549.38;;;6.17;36.49
6565;BME280;3316;44.118;27.258;2024-01-11T12:18:04;101549.91;;;6.42;37.39
6565;BME280;3316;44.118;27.258;2024-01-11T12:20:29;101535.13;;;6.05;37.85
6565;BME280;3316;44.118;27.258;2024-01-11T12:22:56;101546.59;;;5.74;39.07
6565;BME280;3316;44.118;27.258;2024-01-11T12:25:21;101553.88;;;5.87;39.67
6565;BME280;3316;44.118;27.258;2024-01-11T12:27:47;101552.06;;;5.83;39.26
6565;BME280;3316;44.118;27.258;2024-01-11T12:30:12;101546.38;;;5.65;39.57
6565;BME280;3316;44.118;27.258;2024-01-11T12:32:42;101534.63;;;5.48;40.02
6565;BME280;3316;44.118;27.258;2024-01-11T12:35:08;101543.50;;;5.55;40.73
6565;BME280;3316;44.118;27.258;2024-01-11T12:37:34;101536.47;;;5.52;39.42
6565;BME280;3316;44.118;27.258;2024-01-11T12:39:59;101541.75;;;5.54;38.31
6565;BME280;3316;44.118;27.258;2024-01-11T12:42:28;101510.47;;;5.21;39.59
6565;BME280;3316;44.118;27.258;2024-01-11T12:44:54;101509.72;;;4.92;39.31
6565;BME280;3316;44.118;27.258;2024-01-11T12:47:20;101535.97;;;4.98;39.40
6565;BME280;3316;44.118;27.258;2024-01-11T12:49:46;101520.25;;;4.95;39.49
6565;BME280;3316;44.118;27.258;2024-01-11T12:52:20;101521.38;;;5.05;40.71
6565;BME280;3316;44.118;27.258;2024-01-11T12:54:46;101523.88;;;5.02;40.58
6565;BME280;3316;44.118;27.258;2024-01-11T12:57:31;101507.28;;;4.98;40.12